Time;durP1;ratioP1;P1;durP2;ratioP2;P2;SDS_P1;SDS_P2;PMS_P1;PMS_P2;Temp;Humidity;BMP_temperature;BMP_pressure;BME280_temperature;BME280_humidity;BME280_pressure;Samples;Min_cycle;Max_cycle;Signal;HPM_P1;HPM_P2
2022/12/26 00:00:17;;;;;;;;;;;;;;;;;;5038423;28;19916;-26
2022/12/26 00:02:43;;;;;;;;;;;;;;;;;;5056023;28;20371;-26
2022/12/26 00:05:09;;;;;;;;;;;;;;;;;;5056164;28;20344;-28
2022/12/26 00:07:35;;;;;;;;;;;;;;;;;;5056066;28;19924;-28
2022/12/26 00:10:01;;;;;;;;;;;;;;;;;;5055717;28;19952;-24
2022/12/26 00:12:27;;;;;;;;;;;;;;;;;;5038042;28;19959;-27
2022/12/26 00:14:53;;;;;;;;;;;;;;;;;;5055850;28;19924;-26
2022/12/26 00:17:19;;;;;;;;;;;;;;;;;;5055615;28;20244;-29
2022/12/26 00:19:45;;;;;;;;;;;;;;;;;;5055595;28;20217;-28
2022/12/26 00:22:11;;;;;;;;;;;;;;;;;;5055387;28;19917;-29
2022/12/26 00:24:37;;;;;;;;;;;;;;;;;;5055746;28;19912;-27
2022/12/26 00:27:03;;;;;;;;;;;;;;;;;;5055672;28;20366;-27
2022/12/26 00:29:29;;;;;;;;;;;;;;;;;;5055436;28;19913;-26
2022/12/26 00:31:55;;;;;;;;;;;;;;;;;;5037734;28;19909;-29
2022/12/26 00:34:21;;;;;;;;;;;;;;;;;;5055926;28;19943;-28
2022/12/26 00:36:47;;;;;;;;;;;;;;;;;;5055246;28;19916;-27
2022/12/26 00:39:13;;;;;;;;;;;;;;;;;;5055325;28;19909;-31
2022/12/26 00:41:39;;;;;;;;;;;;;;;;;;5055132;28;19923;-27
2022/12/26 00:44:05;;;;;;;;;;;;;;;;;;5037465;28;19909;-25
2022/12/26 00:46:31;;;;;;;;;;;;;;;;;;5054898;28;20348;-27
2022/12/26 00:48:57;;;;;;;;;;;;;;;;;;5055084;28;19920;-27
2022/12/26 00:51:23;;;;;;;;;;;;;;;;;;5055061;28;19924;-28
2022/12/26 00:53:49;;;;;;;;;;;;;;;;;;5054942;28;19913;-32
2022/12/26 00:56:15;;;;;;;;;;;;;;;;;;5054965;28;20062;-28
2022/12/26 00:58:41;;;;;;;;;;;;;;;;;;5055367;28;19913;-25
2022/12/26 01:01:07;;;;;;;;;;;;;;;;;;5054291;28;19919;-27
2022/12/26 01:03:33;;;;;;;;;;;;;;;;;;5054817;28;19921;-27
2022/12/26 01:05:59;;;;;;;;;;;;;;;;;;5054835;28;19909;-31
2022/12/26 01:08:25;;;;;;;;;;;;;;;;;;5055059;28;20000;-26
2022/12/26 01:10:51;;;;;;;;;;;;;;;;;;5055040;28;19952;-32
2022/12/26 01:13:17;;;;;;;;;;;;;;;;;;5054796;28;19920;-31
2022/12/26 01:15:43;;;;;;;;;;;;;;;;;;5054956;28;19952;-31
2022/12/26 01:18:09;;;;;;;;;;;;;;;;;;5054954;28;19930;-25
2022/12/26 01:20:34;;;;;;;;;;;;;;;;;;5054525;28;20007;-31
2022/12/26 01:23:00;;;;;;;;;;;;;;;;;;5054568;28;20007;-27
2022/12/26 01:25:26;;;;;;;;;;;;;;;;;;5054812;28;19913;-30
2022/12/26 01:27:52;;;;;;;;;;;;;;;;;;5054594;28;19982;-28
2022/12/26 01:30:18;;;;;;;;;;;;;;;;;;5054547;28;19913;-29
2022/12/26 01:32:44;;;;;;;;;;;;;;;;;;5054470;28;20255;-28
2022/12/26 01:35:10;;;;;;;;;;;;;;;;;;5036923;28;19909;-30
2022/12/26 01:37:36;;;;;;;;;;;;;;;;;;5054554;28;19948;-25
2022/12/26 01:40:02;;;;;;;;;;;;;;;;;;5054789;28;20309;-28
2022/12/26 01:42:28;;;;;;;;;;;;;;;;;;5054393;28;20008;-25
2022/12/26 01:44:54;;;;;;;;;;;;;;;;;;5054513;28;19959;-29
2022/12/26 01:47:20;;;;;;;;;;;;;;;;;;5054605;28;19928;-26
2022/12/26 01:49:46;;;;;;;;;;;;;;;;;;5054375;28;19913;-27
2022/12/26 01:52:12;;;;;;;;;;;;;;;;;;5054522;28;19913;-32
2022/12/26 01:54:38;;;;;;;;;;;;;;;;;;5054237;28;20401;-26
2022/12/26 01:57:04;;;;;;;;;;;;;;;;;;5054262;28;19919;-28
2022/12/26 01:59:30;;;;;;;;;;;;;;;;;;5054532;28;19913;-28
2022/12/26 02:01:56;;;;;;;;;;;;;;;;;;5054219;28;20389;-28
2022/12/26 02:07:07;;;;;;;;;;;;;;;;;;5054256;28;19990;-27
2022/12/26 02:09:33;;;;;;;;;;;;;;;;;;5054183;28;20291;-28
2022/12/26 02:11:59;;;;;;;;;;;;;;;;;;5055136;28;20247;-24
2022/12/26 02:14:25;;;;;;;;;;;;;;;;;;5058173;28;19916;-28
2022/12/26 02:16:51;;;;;;;;;;;;;;;;;;5058151;28;20298;-26
2022/12/26 02:19:17;;;;;;;;;;;;;;;;;;5040245;28;20378;-24
2022/12/26 02:21:42;;;;;;;;;;;;;;;;;;5058020;28;19932;-27
2022/12/26 02:24:08;;;;;;;;;;;;;;;;;;5057790;28;20354;-25
2022/12/26 02:26:34;;;;;;;;;;;;;;;;;;5057735;28;20213;-28
2022/12/26 02:29:00;;;;;;;;;;;;;;;;;;5057815;28;19920;-25
2022/12/26 02:31:26;;;;;;;;;;;;;;;;;;5040038;28;19913;-27
2022/12/26 02:33:52;;;;;;;;;;;;;;;;;;5057441;28;19920;-30
2022/12/26 02:36:18;;;;;;;;;;;;;;;;;;5057846;28;19908;-29
2022/12/26 02:38:44;;;;;;;;;;;;;;;;;;5057546;28;19917;-27
2022/12/26 02:41:10;;;;;;;;;;;;;;;;;;5039748;28;20358;-31
2022/12/26 02:43:36;;;;;;;;;;;;;;;;;;5057629;28;19920;-27
2022/12/26 02:48:47;;;;;;;;;;;;;;;;;;5057440;28;19920;-29
2022/12/26 03:13:10;;;;;;;;;;;;;;;;;;5057238;28;19915;-29
2022/12/26 03:17:18;;;;;;;;;;;;;;;;;;5057371;28;20007;-31
2022/12/26 03:18:22;;;;;;;;;;;;;;;;;;5056778;28;19931;-27
2022/12/26 03:20:48;;;;;;;;;;;;;;;;;;5056624;28;19921;-30
2022/12/26 03:23:14;;;;;;;;;;;;;;;;;;5056275;28;19931;-29
2022/12/26 03:28:24;;;;;;;;;;;;;;;;;;5056926;28;19927;-28
2022/12/26 03:30:50;;;;;;;;;;;;;;;;;;5056594;28;20011;-26
2022/12/26 03:36:01;;;;;;;;;;;;;;;;;;5056815;28;19978;-33
2022/12/26 03:38:27;;;;;;;;;;;;;;;;;;5056379;28;19915;-32
2022/12/26 04:19:25;;;;;;;;;;;;;;;;;;5056021;28;20344;-28
2022/12/26 04:46:33;;;;;;;;;;;;;;;;;;5055162;28;19931;-26
2022/12/26 04:51:44;;;;;;;;;;;;;;;;;;5055087;28;20058;-26
2022/12/26 04:54:10;;;;;;;;;;;;;;;;;;5055049;28;19950;-27
2022/12/26 04:56:36;;;;;;;;;;;;;;;;;;5055301;28;20228;-25
2022/12/26 04:59:02;;;;;;;;;;;;;;;;;;5055207;28;19934;-26
2022/12/26 05:09:40;;;;;;;;;;;;;;;;;;5035310;28;20007;-25
2022/12/26 05:12:06;;;;;;;;;;;;;;;;;;5034870;28;20009;-25
2022/12/26 05:14:34;;;;;;;;;;;;;;;;;;5034904;28;19945;-25
2022/12/26 05:30:43;;;;;;;;;;;;;;;;;;5035110;28;20390;-25
2022/12/26 05:35:54;;;;;;;;;;;;;;;;;;5034818;28;19979;-25
2022/12/26 05:38:20;;;;;;;;;;;;;;;;;;5034672;28;19913;-25
2022/12/26 05:40:46;;;;;;;;;;;;;;;;;;5034568;28;20040;-25
2022/12/26 05:43:12;;;;;;;;;;;;;;;;;;5034656;28;19992;-25
2022/12/26 05:45:38;;;;;;;;;;;;;;;;;;5035338;28;19913;-25
2022/12/26 05:48:04;;;;;;;;;;;;;;;;;;5037702;28;19913;-25
2022/12/26 05:50:30;;;;;;;;;;;;;;;;;;5038752;28;19924;-25
2022/12/26 05:52:56;;;;;;;;;;;;;;;;;;5038527;28;20263;-25
2022/12/26 05:55:23;;;;;;;;;;;;;;;;;;5038755;28;19917;-25
2022/12/26 05:57:49;;;;;;;;;;;;;;;;;;5038402;28;19920;-25
2022/12/26 06:00:15;;;;;;;;;;;;;;;;;;5038575;28;19913;-25
2022/12/26 06:02:41;;;;;;;;;;;;;;;;;;5037889;28;19921;-25
2022/12/26 06:05:07;;;;;;;;;;;;;;;;;;5038642;28;19963;-25
2022/12/26 06:07:33;;;;;;;;;;;;;;;;;;5038290;28;19951;-25
2022/12/26 06:09:59;;;;;;;;;;;;;;;;;;5038238;28;19920;-25
2022/12/26 06:12:24;;;;;;;;;;;;;;;;;;5038067;28;19960;-25
2022/12/26 06:14:50;;;;;;;;;;;;;;;;;;5037159;28;20225;-26
2022/12/26 06:17:16;;;;;;;;;;;;;;;;;;5037970;28;20307;-25
2022/12/26 06:19:42;;;;;;;;;;;;;;;;;;5038000;28;19988;-25
2022/12/26 06:22:09;;;;;;;;;;;;;;;;;;5037803;28;19947;-25
2022/12/26 06:24:35;;;;;;;;;;;;;;;;;;5037959;28;19992;-26
2022/12/26 06:27:02;;;;;;;;;;;;;;;;;;5037806;28;19928;-25
2022/12/26 06:29:28;;;;;;;;;;;;;;;;;;5038633;28;19913;-25
2022/12/26 06:31:54;;;;;;;;;;;;;;;;;;5036716;28;19962;-25
2022/12/26 06:34:20;;;;;;;;;;;;;;;;;;5037746;28;20260;-25
2022/12/26 06:36:46;;;;;;;;;;;;;;;;;;5037686;28;19913;-25
2022/12/26 06:39:12;;;;;;;;;;;;;;;;;;5037739;28;19913;-25
2022/12/26 06:41:38;;;;;;;;;;;;;;;;;;5037851;28;19917;-25
2022/12/26 06:44:04;;;;;;;;;;;;;;;;;;5037582;28;19933;-25
2022/12/26 06:46:30;;;;;;;;;;;;;;;;;;5037548;28;20281;-25
2022/12/26 06:48:56;;;;;;;;;;;;;;;;;;5037819;28;19917;-25
2022/12/26 06:51:22;;;;;;;;;;;;;;;;;;5037436;28;19913;-25
2022/12/26 06:53:48;;;;;;;;;;;;;;;;;;5037898;28;19909;-25
2022/12/26 06:56:14;;;;;;;;;;;;;;;;;;5038400;28;19917;-25
2022/12/26 06:58:40;;;;;;;;;;;;;;;;;;5036706;28;20239;-25
2022/12/26 07:01:06;;;;;;;;;;;;;;;;;;5037266;28;19913;-25
2022/12/26 07:03:32;;;;;;;;;;;;;;;;;;5037003;28;19921;-25
2022/12/26 07:05:58;;;;;;;;;;;;;;;;;;5037171;28;19920;-25
2022/12/26 07:08:24;;;;;;;;;;;;;;;;;;5037389;28;19924;-25
2022/12/26 07:10:50;;;;;;;;;;;;;;;;;;5037053;28;19913;-25
2022/12/26 07:13:16;;;;;;;;;;;;;;;;;;5037312;28;19992;-25
2022/12/26 07:15:42;;;;;;;;;;;;;;;;;;5037005;28;20249;-25
2022/12/26 07:18:08;;;;;;;;;;;;;;;;;;5037022;28;19913;-25
2022/12/26 07:20:34;;;;;;;;;;;;;;;;;;5036913;28;19917;-25
2022/12/26 07:23:00;;;;;;;;;;;;;;;;;;5036970;28;20407;-25
2022/12/26 07:25:26;;;;;;;;;;;;;;;;;;5037087;28;19913;-25
2022/12/26 07:27:52;;;;;;;;;;;;;;;;;;5035793;28;20260;-25
2022/12/26 07:30:18;;;;;;;;;;;;;;;;;;5036934;28;19913;-25
2022/12/26 07:32:43;;;;;;;;;;;;;;;;;;5036612;28;20306;-25
2022/12/26 07:35:09;;;;;;;;;;;;;;;;;;5036585;28;19971;-25
2022/12/26 07:37:35;;;;;;;;;;;;;;;;;;5036772;28;20324;-25
2022/12/26 07:40:01;;;;;;;;;;;;;;;;;;5036568;28;20412;-25
2022/12/26 07:42:27;;;;;;;;;;;;;;;;;;5035337;28;19917;-25
2022/12/26 07:44:53;;;;;;;;;;;;;;;;;;5036510;28;19928;-25
2022/12/26 07:47:19;;;;;;;;;;;;;;;;;;5036378;28;19909;-25
2022/12/26 07:49:45;;;;;;;;;;;;;;;;;;5036559;28;19926;-25
2022/12/26 07:52:11;;;;;;;;;;;;;;;;;;5036449;28;19956;-25
2022/12/26 07:54:37;;;;;;;;;;;;;;;;;;5036321;28;19999;-25
2022/12/26 07:57:03;;;;;;;;;;;;;;;;;;5036217;28;20025;-25
2022/12/26 07:59:29;;;;;;;;;;;;;;;;;;5036200;28;19920;-25
2022/12/26 08:01:57;;;;;;;;;;;;;;;;;;5036027;28;19923;-26
2022/12/26 08:04:23;;;;;;;;;;;;;;;;;;5035904;28;20291;-25
2022/12/26 08:06:49;;;;;;;;;;;;;;;;;;5036298;28;19967;-25
2022/12/26 08:09:15;;;;;;;;;;;;;;;;;;5036167;28;19910;-25
2022/12/26 08:11:41;;;;;;;;;;;;;;;;;;5035874;28;20344;-25
2022/12/26 08:14:07;;;;;;;;;;;;;;;;;;5035714;28;19932;-25
2022/12/26 08:16:33;;;;;;;;;;;;;;;;;;5036051;28;19913;-25
2022/12/26 08:18:59;;;;;;;;;;;;;;;;;;5035824;28;19913;-25
2022/12/26 08:21:25;;;;;;;;;;;;;;;;;;5035669;28;19917;-25
2022/12/26 08:23:51;;;;;;;;;;;;;;;;;;5034618;28;19920;-25
2022/12/26 08:26:21;;;;;;;;;;;;;;;;;;5035911;28;19913;-25
2022/12/26 08:28:47;;;;;;;;;;;;;;;;;;5035589;28;19913;-25
2022/12/26 08:31:13;;;;;;;;;;;;;;;;;;5035817;28;19913;-25
2022/12/26 08:33:39;;;;;;;;;;;;;;;;;;5035545;28;19964;-25
2022/12/26 08:36:05;;;;;;;;;;;;;;;;;;5035485;28;19913;-25
2022/12/26 08:38:31;;;;;;;;;;;;;;;;;;5035763;28;19920;-25
2022/12/26 08:40:57;;;;;;;;;;;;;;;;;;5035595;28;19917;-25
2022/12/26 08:43:23;;;;;;;;;;;;;;;;;;5035330;28;19924;-25
2022/12/26 08:45:49;;;;;;;;;;;;;;;;;;5035316;28;19921;-25
2022/12/26 08:48:15;;;;;;;;;;;;;;;;;;5035546;28;19924;-25
2022/12/26 08:50:41;;;;;;;;;;;;;;;;;;5035077;28;20275;-25
2022/12/26 08:53:07;;;;;;;;;;;;;;;;;;5035133;28;19909;-25
2022/12/26 08:55:33;;;;;;;;;;;;;;;;;;5034186;28;20406;-25
2022/12/26 08:57:59;;;;;;;;;;;;;;;;;;5035391;28;19996;-25
2022/12/26 09:00:25;;;;;;;;;;;;;;;;;;5034934;28;19913;-25
2022/12/26 09:02:51;;;;;;;;;;;;;;;;;;5034782;28;19932;-25
2022/12/26 09:05:17;;;;;;;;;;;;;;;;;;5035022;28;19993;-25
2022/12/26 09:07:43;;;;;;;;;;;;;;;;;;5035020;28;20366;-25
2022/12/26 09:10:09;;;;;;;;;;;;;;;;;;5035090;28;19936;-25
2022/12/26 09:12:35;;;;;;;;;;;;;;;;;;5034920;28;19920;-25
2022/12/26 09:15:01;;;;;;;;;;;;;;;;;;5035194;28;19924;-25
2022/12/26 09:17:27;;;;;;;;;;;;;;;;;;5035179;28;20051;-25
2022/12/26 09:19:53;;;;;;;;;;;;;;;;;;5033971;28;20124;-25
2022/12/26 09:25:04;;;;;;;;;;;;;;;;;;5034876;28;19951;-25
2022/12/26 09:27:30;;;;;;;;;;;;;;;;;;5034762;28;19909;-25
2022/12/26 09:29:56;;;;;;;;;;;;;;;;;;5034767;28;19929;-25
2022/12/26 09:32:21;;;;;;;;;;;;;;;;;;5034895;28;19913;-25
2022/12/26 09:34:48;;;;;;;;;;;;;;;;;;5034668;28;19909;-25
2022/12/26 09:37:14;;;;;;;;;;;;;;;;;;5034648;28;19928;-25
2022/12/26 09:39:40;;;;;;;;;;;;;;;;;;5034664;28;19909;-25
2022/12/26 09:42:06;;;;;;;;;;;;;;;;;;5034690;28;19928;-25
2022/12/26 09:44:32;;;;;;;;;;;;;;;;;;5034831;28;19909;-28
2022/12/26 09:46:58;;;;;;;;;;;;;;;;;;5034794;28;19924;-28
2022/12/26 09:49:24;;;;;;;;;;;;;;;;;;5034788;28;19917;-28
2022/12/26 09:51:50;;;;;;;;;;;;;;;;;;5034466;28;19936;-25
2022/12/26 09:54:16;;;;;;;;;;;;;;;;;;5034613;28;19913;-29
2022/12/26 09:56:42;;;;;;;;;;;;;;;;;;5034502;28;19920;-26
2022/12/26 09:59:08;;;;;;;;;;;;;;;;;;5034765;28;19943;-26
2022/12/26 10:01:34;;;;;;;;;;;;;;;;;;5034339;28;19921;-27
2022/12/26 10:04:00;;;;;;;;;;;;;;;;;;5034233;28;19921;-31
2022/12/26 10:06:26;;;;;;;;;;;;;;;;;;5034319;28;19963;-26
2022/12/26 10:08:52;;;;;;;;;;;;;;;;;;5035068;28;19940;-24
2022/12/26 10:11:18;;;;;;;;;;;;;;;;;;5034299;28;19913;-28
2022/12/26 10:13:44;;;;;;;;;;;;;;;;;;5034281;28;19936;-26
2022/12/26 10:16:09;;;;;;;;;;;;;;;;;;5034207;28;20344;-28
2022/12/26 10:18:35;;;;;;;;;;;;;;;;;;5034275;28;19967;-30
2022/12/26 10:21:02;;;;;;;;;;;;;;;;;;5034236;28;19920;-24
2022/12/26 10:23:28;;;;;;;;;;;;;;;;;;5034186;28;19996;-26
2022/12/26 10:25:54;;;;;;;;;;;;;;;;;;5034539;28;20022;-25
2022/12/26 10:28:20;;;;;;;;;;;;;;;;;;5034053;28;19913;-27
2022/12/26 10:30:46;;;;;;;;;;;;;;;;;;5034496;28;19920;-32
2022/12/26 10:33:12;;;;;;;;;;;;;;;;;;5035442;28;19913;-32
2022/12/26 10:35:38;;;;;;;;;;;;;;;;;;5038045;28;20252;-29
2022/12/26 10:38:04;;;;;;;;;;;;;;;;;;5038061;28;19917;-31
2022/12/26 10:40:30;;;;;;;;;;;;;;;;;;5037877;28;19913;-30
2022/12/26 10:42:56;;;;;;;;;;;;;;;;;;5037539;28;19910;-25
2022/12/26 10:45:22;;;;;;;;;;;;;;;;;;5037894;28;19935;-26
2022/12/26 10:47:48;;;;;;;;;;;;;;;;;;5037610;28;20383;-29
2022/12/26 10:50:14;;;;;;;;;;;;;;;;;;5037701;28;20405;-27
2022/12/26 10:52:40;;;;;;;;;;;;;;;;;;5037417;28;19910;-24
2022/12/26 10:55:07;;;;;;;;;;;;;;;;;;5037714;28;20374;-24
2022/12/26 10:57:33;;;;;;;;;;;;;;;;;;5037388;28;19913;-25
2022/12/26 10:59:59;;;;;;;;;;;;;;;;;;5037607;28;19916;-29
2022/12/26 11:02:25;;;;;;;;;;;;;;;;;;5037030;28;20255;-24
2022/12/26 11:04:51;;;;;;;;;;;;;;;;;;5037489;28;19920;-27
2022/12/26 11:07:17;;;;;;;;;;;;;;;;;;5037180;28;20311;-27
2022/12/26 11:09:44;;;;;;;;;;;;;;;;;;5037421;28;19913;-25
2022/12/26 11:12:10;;;;;;;;;;;;;;;;;;5037066;28;19913;-26
2022/12/26 11:14:36;;;;;;;;;;;;;;;;;;5036996;28;19920;-26
2022/12/26 11:17:02;;;;;;;;;;;;;;;;;;5037025;28;19931;-29
2022/12/26 11:19:28;;;;;;;;;;;;;;;;;;5037199;28;19917;-23
2022/12/26 11:21:54;;;;;;;;;;;;;;;;;;5036732;28;20040;-33
2022/12/26 11:24:20;;;;;;;;;;;;;;;;;;5037083;28;20034;-32
2022/12/26 11:26:46;;;;;;;;;;;;;;;;;;5036777;28;19963;-26
2022/12/26 11:29:12;;;;;;;;;;;;;;;;;;5036671;28;19983;-27
2022/12/26 11:31:38;;;;;;;;;;;;;;;;;;5036718;28;19912;-26
2022/12/26 11:34:04;;;;;;;;;;;;;;;;;;5036594;28;19917;-31
2022/12/26 11:36:31;;;;;;;;;;;;;;;;;;5036886;28;19913;-30
2022/12/26 11:38:57;;;;;;;;;;;;;;;;;;5036839;28;19920;-25
2022/12/26 11:41:33;;;;;;;;;;;;;;;;;;5036343;28;20248;-25
2022/12/26 11:43:59;;;;;;;;;;;;;;;;;;5036761;28;19909;-27
2022/12/26 11:46:25;;;;;;;;;;;;;;;;;;5036444;28;19938;-25
2022/12/26 11:48:51;;;;;;;;;;;;;;;;;;5036445;28;20052;-28
2022/12/26 11:51:17;;;;;;;;;;;;;;;;;;5036427;28;19913;-30
2022/12/26 11:53:43;;;;;;;;;;;;;;;;;;5036214;28;19945;-30
2022/12/26 11:56:09;;;;;;;;;;;;;;;;;;5036215;28;19967;-29
2022/12/26 11:58:35;;;;;;;;;;;;;;;;;;5036198;28;19916;-24
2022/12/26 12:01:01;;;;;;;;;;;;;;;;;;5036029;28;20306;-28
2022/12/26 12:03:27;;;;;;;;;;;;;;;;;;5034844;28;20004;-26
2022/12/26 12:05:53;;;;;;;;;;;;;;;;;;5036060;28;19928;-28
2022/12/26 12:08:19;;;;;;;;;;;;;;;;;;5035943;28;19917;-28
2022/12/26 12:10:46;;;;;;;;;;;;;;;;;;5035976;28;19927;-26
2022/12/26 12:13:12;;;;;;;;;;;;;;;;;;5035797;28;19917;-31
2022/12/26 12:15:38;;;;;;;;;;;;;;;;;;5034776;28;19982;-29
2022/12/26 12:18:04;;;;;;;;;;;;;;;;;;5035980;28;19917;-25
2022/12/26 12:20:30;;;;;;;;;;;;;;;;;;5035889;28;19913;-28
2022/12/26 12:22:56;;;;;;;;;;;;;;;;;;5035641;28;19909;-26
2022/12/26 12:25:22;;;;;;;;;;;;;;;;;;5035625;28;19913;-26
2022/12/26 12:27:48;;;;;;;;;;;;;;;;;;5035683;28;19956;-30
2022/12/26 12:30:14;;;;;;;;;;;;;;;;;;5035862;28;19917;-25
2022/12/26 12:32:40;;;;;;;;;;;;;;;;;;5035578;28;19909;-27
2022/12/26 12:35:07;;;;;;;;;;;;;;;;;;5035507;28;19914;-24
2022/12/26 12:37:33;;;;;;;;;;;;;;;;;;5035504;28;19994;-26
2022/12/26 12:39:59;;;;;;;;;;;;;;;;;;5036121;28;19913;-29
2022/12/26 12:42:25;;;;;;;;;;;;;;;;;;5035229;28;19914;-27
2022/12/26 12:44:51;;;;;;;;;;;;;;;;;;5035577;28;19947;-24
2022/12/26 12:47:17;;;;;;;;;;;;;;;;;;5035329;28;19912;-27
2022/12/26 12:49:43;;;;;;;;;;;;;;;;;;5035458;28;20306;-26
2022/12/26 12:52:09;;;;;;;;;;;;;;;;;;5035343;28;19913;-25
2022/12/26 12:54:35;;;;;;;;;;;;;;;;;;5035113;28;20308;-29
2022/12/26 12:57:01;;;;;;;;;;;;;;;;;;5034955;28;19990;-25
2022/12/26 12:59:27;;;;;;;;;;;;;;;;;;5035102;28;19913;-28
2022/12/26 13:01:53;;;;;;;;;;;;;;;;;;5035130;28;19917;-30
2022/12/26 13:04:19;;;;;;;;;;;;;;;;;;5034950;28;19975;-29
2022/12/26 13:06:45;;;;;;;;;;;;;;;;;;5035284;28;19909;-27
2022/12/26 13:09:11;;;;;;;;;;;;;;;;;;5034044;28;19921;-26
2022/12/26 13:11:37;;;;;;;;;;;;;;;;;;5033982;28;19963;-27
2022/12/26 13:14:04;;;;;;;;;;;;;;;;;;5034923;28;19996;-30
2022/12/26 13:16:30;;;;;;;;;;;;;;;;;;5034826;28;19991;-28
2022/12/26 13:18:56;;;;;;;;;;;;;;;;;;5034792;28;20037;-28
2022/12/26 13:21:22;;;;;;;;;;;;;;;;;;5034701;28;19925;-27
2022/12/26 13:26:33;;;;;;;;;;;;;;;;;;5034880;28;20111;-28
2022/12/26 13:28:59;;;;;;;;;;;;;;;;;;5034667;28;20389;-23
2022/12/26 13:31:25;;;;;;;;;;;;;;;;;;5034685;28;19913;-31
2022/12/26 13:33:51;;;;;;;;;;;;;;;;;;5034700;28;19917;-30
2022/12/26 13:36:17;;;;;;;;;;;;;;;;;;5034643;28;19913;-26
2022/12/26 13:38:43;;;;;;;;;;;;;;;;;;5034674;28;19931;-31
2022/12/26 13:43:54;;;;;;;;;;;;;;;;;;5034569;28;20474;-29
2022/12/26 13:46:20;;;;;;;;;;;;;;;;;;5034579;28;20260;-24
2022/12/26 13:48:46;;;;;;;;;;;;;;;;;;5034604;28;19924;-31
2022/12/26 13:51:11;;;;;;;;;;;;;;;;;;5034805;28;19917;-26
2022/12/26 13:53:37;;;;;;;;;;;;;;;;;;5034512;28;20264;-28
2022/12/26 13:56:03;;;;;;;;;;;;;;;;;;5034518;28;20304;-27
2022/12/26 13:58:29;;;;;;;;;;;;;;;;;;5034479;28;19967;-29
2022/12/26 14:00:55;;;;;;;;;;;;;;;;;;5034697;28;19978;-25
2022/12/26 14:03:21;;;;;;;;;;;;;;;;;;5034127;28;20271;-27
2022/12/26 14:05:47;;;;;;;;;;;;;;;;;;5034377;28;19916;-27
2022/12/26 14:08:14;;;;;;;;;;;;;;;;;;5037470;28;19920;-30
2022/12/26 14:10:42;;;;;;;;;;;;;;;;;;5038208;28;19924;-27
2022/12/26 14:13:08;;;;;;;;;;;;;;;;;;5038094;28;19917;-30
2022/12/26 14:15:34;;;;;;;;;;;;;;;;;;5038114;28;20043;-25
2022/12/26 14:18:00;;;;;;;;;;;;;;;;;;5038127;28;19953;-26
2022/12/26 14:20:26;;;;;;;;;;;;;;;;;;5037967;28;19948;-25
2022/12/26 14:22:52;;;;;;;;;;;;;;;;;;5037886;28;19924;-26
2022/12/26 14:25:18;;;;;;;;;;;;;;;;;;5038029;28;20004;-25
2022/12/26 14:27:44;;;;;;;;;;;;;;;;;;5038161;28;20350;-28
2022/12/26 14:30:10;;;;;;;;;;;;;;;;;;5037975;28;19910;-25
2022/12/26 14:32:36;;;;;;;;;;;;;;;;;;5037788;28;20409;-24
2022/12/26 14:35:02;;;;;;;;;;;;;;;;;;5037818;28;19913;-27
2022/12/26 14:37:28;;;;;;;;;;;;;;;;;;5037711;28;20331;-29
2022/12/26 14:39:54;;;;;;;;;;;;;;;;;;5036744;28;19913;-26
2022/12/26 14:45:05;;;;;;;;;;;;;;;;;;5037996;28;20014;-24
2022/12/26 14:47:31;;;;;;;;;;;;;;;;;;5037531;28;19925;-28
2022/12/26 14:49:57;;;;;;;;;;;;;;;;;;5037533;28;19909;-28
2022/12/26 14:52:23;;;;;;;;;;;;;;;;;;5037326;28;19913;-31
2022/12/26 14:54:49;;;;;;;;;;;;;;;;;;5037710;28;19924;-27
2022/12/26 14:57:15;;;;;;;;;;;;;;;;;;5037682;28;20016;-28
2022/12/26 14:59:41;;;;;;;;;;;;;;;;;;5037322;28;20288;-24
2022/12/26 15:02:07;;;;;;;;;;;;;;;;;;5037324;28;19925;-27
2022/12/26 15:04:33;;;;;;;;;;;;;;;;;;5037043;28;19929;-27
2022/12/26 15:06:59;;;;;;;;;;;;;;;;;;5037125;28;19932;-26
2022/12/26 15:09:25;;;;;;;;;;;;;;;;;;5037393;28;19913;-30
2022/12/26 15:11:50;;;;;;;;;;;;;;;;;;5037232;28;19994;-25
2022/12/26 15:14:17;;;;;;;;;;;;;;;;;;5037307;28;20328;-32
2022/12/26 15:16:42;;;;;;;;;;;;;;;;;;5037274;28;19914;-25
2022/12/26 15:19:09;;;;;;;;;;;;;;;;;;5036533;28;19909;-31
2022/12/26 15:21:35;;;;;;;;;;;;;;;;;;5036905;28;20340;-30
2022/12/26 15:24:01;;;;;;;;;;;;;;;;;;5037038;28;19910;-29
2022/12/26 15:26:27;;;;;;;;;;;;;;;;;;5036822;28;20244;-28
2022/12/26 15:28:53;;;;;;;;;;;;;;;;;;5037089;28;19916;-24
2022/12/26 15:31:19;;;;;;;;;;;;;;;;;;5036708;28;19952;-26
2022/12/26 15:33:45;;;;;;;;;;;;;;;;;;5036692;28;20003;-26
2022/12/26 15:36:11;;;;;;;;;;;;;;;;;;5036648;28;19971;-30
2022/12/26 15:38:37;;;;;;;;;;;;;;;;;;5036612;28;19913;-32
2022/12/26 15:41:03;;;;;;;;;;;;;;;;;;5036538;28;19956;-29
2022/12/26 15:43:29;;;;;;;;;;;;;;;;;;5036540;28;19913;-27
2022/12/26 15:45:55;;;;;;;;;;;;;;;;;;5036467;28;19913;-30
2022/12/26 15:48:21;;;;;;;;;;;;;;;;;;5036730;28;19913;-27
2022/12/26 15:50:47;;;;;;;;;;;;;;;;;;5036603;28;19924;-30
2022/12/26 15:53:13;;;;;;;;;;;;;;;;;;5036297;28;19935;-28
2022/12/26 15:55:38;;;;;;;;;;;;;;;;;;5036250;28;19913;-28
2022/12/26 15:58:05;;;;;;;;;;;;;;;;;;5036269;28;19924;-27
2022/12/26 16:00:30;;;;;;;;;;;;;;;;;;5036438;28;19920;-24
2022/12/26 16:02:57;;;;;;;;;;;;;;;;;;5036007;28;20000;-30
2022/12/26 16:05:23;;;;;;;;;;;;;;;;;;5036399;28;19909;-24
2022/12/26 16:07:49;;;;;;;;;;;;;;;;;;5035044;28;19992;-26
2022/12/26 16:10:15;;;;;;;;;;;;;;;;;;5035942;28;19959;-29
2022/12/26 16:12:43;;;;;;;;;;;;;;;;;;5035847;28;19920;-26
2022/12/26 16:15:09;;;;;;;;;;;;;;;;;;5036199;28;19910;-27
2022/12/26 16:17:35;;;;;;;;;;;;;;;;;;5035846;28;20023;-31
2022/12/26 16:20:00;;;;;;;;;;;;;;;;;;5035785;28;20259;-32
2022/12/26 16:22:42;;;;;;;;;;;;;;;;;;5035571;28;19967;-24
2022/12/26 16:25:08;;;;;;;;;;;;;;;;;;5036007;28;20277;-28
2022/12/26 16:27:34;;;;;;;;;;;;;;;;;;5035691;28;19913;-28
2022/12/26 16:30:02;;;;;;;;;;;;;;;;;;5035333;28;20217;-26
2022/12/26 16:32:28;;;;;;;;;;;;;;;;;;5035499;28;19914;-26
2022/12/26 16:34:54;;;;;;;;;;;;;;;;;;5035835;28;19978;-28
2022/12/26 16:37:20;;;;;;;;;;;;;;;;;;5035474;28;20248;-30
2022/12/26 16:39:47;;;;;;;;;;;;;;;;;;5034549;28;19977;-25
2022/12/26 16:42:13;;;;;;;;;;;;;;;;;;5035593;28;19943;-26
2022/12/26 16:44:39;;;;;;;;;;;;;;;;;;5035638;28;20308;-29
2022/12/26 16:47:05;;;;;;;;;;;;;;;;;;5035406;28;19952;-25
2022/12/26 16:49:31;;;;;;;;;;;;;;;;;;5035523;28;19914;-24
2022/12/26 16:51:57;;;;;;;;;;;;;;;;;;5035209;28;19909;-30
2022/12/26 16:54:23;;;;;;;;;;;;;;;;;;5035161;28;19913;-24
2022/12/26 16:56:49;;;;;;;;;;;;;;;;;;5035425;28;20375;-29
2022/12/26 16:59:15;;;;;;;;;;;;;;;;;;5034145;28;19909;-27
2022/12/26 17:01:41;;;;;;;;;;;;;;;;;;5035002;28;20212;-28
2022/12/26 17:04:07;;;;;;;;;;;;;;;;;;5034761;28;19921;-25
2022/12/26 17:06:33;;;;;;;;;;;;;;;;;;5035044;28;19924;-25
2022/12/26 17:09:00;;;;;;;;;;;;;;;;;;5034905;28;20002;-30
2022/12/26 17:11:25;;;;;;;;;;;;;;;;;;5034931;28;19913;-29
2022/12/26 17:13:51;;;;;;;;;;;;;;;;;;5034871;28;20262;-23
2022/12/26 17:16:18;;;;;;;;;;;;;;;;;;5034959;28;19949;-29
2022/12/26 17:18:44;;;;;;;;;;;;;;;;;;5034950;28;19924;-27
2022/12/26 17:21:10;;;;;;;;;;;;;;;;;;5034753;28;20339;-32
2022/12/26 17:23:36;;;;;;;;;;;;;;;;;;5034969;28;20024;-32
2022/12/26 17:26:02;;;;;;;;;;;;;;;;;;5035067;28;19913;-24
2022/12/26 17:28:28;;;;;;;;;;;;;;;;;;5034673;28;20402;-34
2022/12/26 17:30:54;;;;;;;;;;;;;;;;;;5034983;28;19928;-25
2022/12/26 17:33:20;;;;;;;;;;;;;;;;;;5034735;28;20356;-26
2022/12/26 17:35:46;;;;;;;;;;;;;;;;;;5034574;28;19913;-27
2022/12/26 17:38:12;;;;;;;;;;;;;;;;;;5034987;28;19920;-24
2022/12/26 17:40:38;;;;;;;;;;;;;;;;;;5034624;28;20299;-31
2022/12/26 17:43:04;;;;;;;;;;;;;;;;;;5037245;28;19936;-29
2022/12/26 17:45:30;;;;;;;;;;;;;;;;;;5038680;28;19913;-27
2022/12/26 17:47:56;;;;;;;;;;;;;;;;;;5038883;28;20386;-24
2022/12/26 17:50:22;;;;;;;;;;;;;;;;;;5038663;28;20008;-29
2022/12/26 17:52:48;;;;;;;;;;;;;;;;;;5037619;28;19919;-28
2022/12/26 17:55:14;;;;;;;;;;;;;;;;;;5038473;28;19959;-25
2022/12/26 17:57:40;;;;;;;;;;;;;;;;;;5038807;28;19944;-24
2022/12/26 18:00:07;;;;;;;;;;;;;;;;;;5038499;28;20332;-31
2022/12/26 18:02:33;;;;;;;;;;;;;;;;;;5038034;28;19913;-31
2022/12/26 18:04:59;;;;;;;;;;;;;;;;;;5038375;28;19917;-27
2022/12/26 18:07:25;;;;;;;;;;;;;;;;;;5038366;28;19921;-24
2022/12/26 18:09:51;;;;;;;;;;;;;;;;;;5038249;28;19913;-31
2022/12/26 18:12:17;;;;;;;;;;;;;;;;;;5038225;28;19909;-25
2022/12/26 18:14:43;;;;;;;;;;;;;;;;;;5038394;28;19913;-26
2022/12/26 18:17:09;;;;;;;;;;;;;;;;;;5038204;28;19909;-26
2022/12/26 18:19:35;;;;;;;;;;;;;;;;;;5038349;28;19917;-30
2022/12/26 18:22:01;;;;;;;;;;;;;;;;;;5037913;28;19924;-24
2022/12/26 18:24:27;;;;;;;;;;;;;;;;;;5038066;28;19909;-25
2022/12/26 18:26:53;;;;;;;;;;;;;;;;;;5037981;28;19910;-32
2022/12/26 18:29:20;;;;;;;;;;;;;;;;;;5038272;28;19928;-29
2022/12/26 18:31:46;;;;;;;;;;;;;;;;;;5038081;28;19949;-28
2022/12/26 18:34:12;;;;;;;;;;;;;;;;;;5037881;28;20359;-28
2022/12/26 18:36:40;;;;;;;;;;;;;;;;;;5037788;28;19936;-30
2022/12/26 18:39:06;;;;;;;;;;;;;;;;;;5037731;28;19917;-28
2022/12/26 18:41:32;;;;;;;;;;;;;;;;;;5037607;28;19917;-28
2022/12/26 18:43:58;;;;;;;;;;;;;;;;;;5037891;28;19910;-31
2022/12/26 18:46:24;;;;;;;;;;;;;;;;;;5037647;28;19913;-26
2022/12/26 18:48:52;;;;;;;;;;;;;;;;;;5036798;28;21311;-28
2022/12/26 18:51:18;;;;;;;;;;;;;;;;;;5037497;28;19952;-24